Terminal Aerodrome Forecast
Issued by NWS Amarillo, TX

Home | Current Version | Previous Version | Text Only | Print | Product List | Glossary On
Versions: 1 2 3 4 5 6 7 8 9 10 11 12 13 14 15
000
FTUS44 KAMA 192322
TAFAMA
TAF
KAMA 192322Z 2000/2024 18011KT P6SM BKN300
     FM201600 20015G25KT P6SM SCT060 BKN300=

USA.gov is the U.S. government's official web portal to all federal, state and local government web resources and services.